createdAt,value
2023-01-13T00:01:38.323Z,8.41
2023-01-13T00:04:06.822Z,8.27
2023-01-13T00:06:35.323Z,8.27
2023-01-13T00:09:04.500Z,8.15
2023-01-13T00:11:33.254Z,8.11
2023-01-13T00:14:01.720Z,8.14
2023-01-13T00:16:30.197Z,8.17
2023-01-13T00:19:00.048Z,8.17
2023-01-13T00:21:28.835Z,8.17
2023-01-13T00:23:57.296Z,8.20
2023-01-13T00:26:33.645Z,8.22
2023-01-13T00:29:04.254Z,8.20
2023-01-13T00:31:32.957Z,8.34
2023-01-13T00:34:03.158Z,8.24
2023-01-13T00:36:32.839Z,8.33
2023-01-13T00:39:01.446Z,8.47
2023-01-13T00:41:49.975Z,8.53
2023-01-13T00:44:17.695Z,8.50
2023-01-13T00:46:46.296Z,8.50
2023-01-13T00:49:16.410Z,8.48
2023-01-13T00:51:44.965Z,8.49
2023-01-13T00:54:13.483Z,8.54
2023-01-13T00:56:42.154Z,8.65
2023-01-13T00:59:14.349Z,8.60
2023-01-13T01:01:43.233Z,8.70
2023-01-13T01:04:12.155Z,8.67
2023-01-13T01:06:42.301Z,8.76
2023-01-13T01:09:14.839Z,8.74
2023-01-13T01:11:44.480Z,8.67
2023-01-13T01:14:15.287Z,8.69
2023-01-13T01:16:43.830Z,8.70
2023-01-13T01:19:12.406Z,8.72
2023-01-13T01:21:43.502Z,8.78
2023-01-13T01:24:12.437Z,8.72
2023-01-13T01:26:41.884Z,8.73
2023-01-13T01:29:14.494Z,8.78
2023-01-13T01:31:44.055Z,8.73
2023-01-13T01:34:12.721Z,8.71
2023-01-13T01:36:43.790Z,8.75
2023-01-13T01:39:12.373Z,8.68
2023-01-13T01:42:00.814Z,8.65
2023-01-13T01:44:59.835Z,8.59
2023-01-13T01:47:32.632Z,8.60
2023-01-13T01:50:05.245Z,8.49
2023-01-13T01:52:41.776Z,8.51
2023-01-13T01:55:17.083Z,8.53
2023-01-13T01:57:54.456Z,8.61
2023-01-13T02:00:23.693Z,8.60
2023-01-13T02:02:53.912Z,8.63
2023-01-13T02:05:23.007Z,8.63
2023-01-13T02:07:58.051Z,8.66
2023-01-13T02:10:30.048Z,8.72
2023-01-13T02:13:02.000Z,8.78
2023-01-13T02:15:42.755Z,8.80
2023-01-13T02:18:39.846Z,8.62
2023-01-13T02:21:49.555Z,8.72
2023-01-13T02:25:13.183Z,8.68
2023-01-13T02:28:12.286Z,8.76
2023-01-13T02:31:05.465Z,8.75
2023-01-13T02:34:03.050Z,8.75
2023-01-13T02:36:42.817Z,8.84
2023-01-13T02:39:19.581Z,8.87
2023-01-13T02:42:15.024Z,8.79
2023-01-13T02:44:48.958Z,8.81
2023-01-13T02:47:24.012Z,8.82
2023-01-13T02:49:59.173Z,8.84
2023-01-13T02:52:35.753Z,8.85
2023-01-13T02:55:09.931Z,8.95
2023-01-13T02:57:42.373Z,8.88
2023-01-13T03:00:14.538Z,8.89
2023-01-13T03:02:44.668Z,8.87
2023-01-13T03:05:17.866Z,8.88
2023-01-13T03:08:24.136Z,8.85
2023-01-13T03:11:03.944Z,8.73
2023-01-13T03:14:08.931Z,8.79
2023-01-13T03:16:53.538Z,8.92
2023-01-13T03:19:43.699Z,8.93
2023-01-13T03:22:27.689Z,8.93
2023-01-13T03:25:03.258Z,8.86
2023-01-13T03:27:43.561Z,8.84
2023-01-13T03:30:21.341Z,8.85
2023-01-13T03:32:56.965Z,8.86
2023-01-13T03:35:33.448Z,8.85
2023-01-13T03:38:10.492Z,8.89
2023-01-13T03:40:47.051Z,8.90
2023-01-13T03:43:40.030Z,8.96
2023-01-13T03:46:15.661Z,9.00
2023-01-13T03:48:46.758Z,8.95
2023-01-13T03:51:25.445Z,9.06
2023-01-13T03:54:01.782Z,9.09
2023-01-13T03:56:37.828Z,9.13
2023-01-13T03:59:12.312Z,9.12
2023-01-13T04:01:52.970Z,9.03
2023-01-13T04:04:27.715Z,9.04
2023-01-13T04:07:13.506Z,8.82
2023-01-13T04:09:52.027Z,8.81
2023-01-13T04:12:49.516Z,8.72
2023-01-13T04:15:21.900Z,8.88
2023-01-13T04:17:52.299Z,8.95
2023-01-13T04:20:21.436Z,8.83
2023-01-13T04:22:51.322Z,8.96
2023-01-13T04:25:19.930Z,8.93
2023-01-13T04:27:48.400Z,8.89
2023-01-13T04:30:17.729Z,8.96
2023-01-13T04:32:46.296Z,9.01
2023-01-13T04:35:15.036Z,9.11
2023-01-13T04:37:43.653Z,9.07
2023-01-13T04:40:14.883Z,9.05
2023-01-13T04:42:45.078Z,9.05
2023-01-13T04:45:14.603Z,9.12
2023-01-13T04:47:43.383Z,9.19
2023-01-13T04:50:12.970Z,9.08
2023-01-13T04:52:42.006Z,8.99
2023-01-13T04:55:12.985Z,9.09
2023-01-13T04:57:41.476Z,9.06
2023-01-13T05:00:13.400Z,9.08
2023-01-13T05:02:42.540Z,9.10
2023-01-13T05:05:12.740Z,9.18
2023-01-13T05:07:41.258Z,9.27
2023-01-13T05:10:11.844Z,9.29
2023-01-13T05:12:59.035Z,9.51
2023-01-13T05:15:45.293Z,9.59
2023-01-13T05:18:14.651Z,9.53
2023-01-13T05:20:43.512Z,9.54
2023-01-13T05:23:29.473Z,9.55
2023-01-13T05:25:58.140Z,9.49
2023-01-13T05:28:32.375Z,9.42
2023-01-13T05:31:01.787Z,9.41
2023-01-13T05:33:30.359Z,9.43
2023-01-13T05:36:04.531Z,9.35
2023-01-13T05:38:33.106Z,9.23
2023-01-13T05:41:15.639Z,9.28
2023-01-13T05:43:45.599Z,9.20
2023-01-13T05:46:14.943Z,9.28
2023-01-13T05:48:44.731Z,9.23
2023-01-13T05:51:14.725Z,9.21
2023-01-13T05:53:43.347Z,9.15
2023-01-13T05:56:13.036Z,9.23
2023-01-13T05:58:41.754Z,9.28
2023-01-13T06:01:12.232Z,9.28
2023-01-13T06:03:41.010Z,9.34
2023-01-13T06:06:09.974Z,9.37
2023-01-13T06:08:39.915Z,9.34
2023-01-13T06:11:08.921Z,9.25
2023-01-13T06:13:37.699Z,9.25
2023-01-13T06:16:07.095Z,9.24
2023-01-13T06:18:37.162Z,9.25
2023-01-13T06:21:06.064Z,9.22
2023-01-13T06:23:38.540Z,9.23
2023-01-13T06:26:15.565Z,9.33
2023-01-13T06:28:44.183Z,9.23
2023-01-13T06:31:13.750Z,9.32
2023-01-13T06:33:50.456Z,9.29
2023-01-13T06:36:23.712Z,9.22
2023-01-13T06:38:57.764Z,9.25
2023-01-13T06:41:43.967Z,9.26
2023-01-13T06:44:12.896Z,9.28
2023-01-13T06:46:41.650Z,9.27
2023-01-13T06:49:11.691Z,9.30
2023-01-13T06:51:40.211Z,9.33
2023-01-13T06:54:08.825Z,9.20
2023-01-13T06:56:39.055Z,9.23
2023-01-13T06:59:08.010Z,9.25
2023-01-13T07:01:36.649Z,9.29
2023-01-13T07:04:05.733Z,9.23
2023-01-13T07:06:35.729Z,9.23
2023-01-13T07:09:06.728Z,9.29
2023-01-13T07:11:35.343Z,9.30
2023-01-13T07:14:21.505Z,9.31
2023-01-13T07:16:50.179Z,9.42
2023-01-13T07:19:23.282Z,9.62
2023-01-13T07:21:54.068Z,9.61
2023-01-13T07:24:23.536Z,9.53
2023-01-13T07:26:53.422Z,9.58
2023-01-13T07:29:22.230Z,9.73
2023-01-13T07:31:51.152Z,9.76
2023-01-13T07:34:19.762Z,9.86
2023-01-13T07:36:48.483Z,10.00
2023-01-13T07:39:18.686Z,9.98
2023-01-13T07:42:01.186Z,10.15
2023-01-13T07:44:30.022Z,10.18
2023-01-13T07:46:58.649Z,10.32
2023-01-13T07:49:27.346Z,10.39
2023-01-13T07:51:55.990Z,10.29
2023-01-13T07:54:39.635Z,10.24
2023-01-13T07:57:09.616Z,10.18
2023-01-13T07:59:38.247Z,10.27
2023-01-13T08:02:07.428Z,10.21
2023-01-13T08:04:36.163Z,10.21
2023-01-13T08:07:06.496Z,10.17
2023-01-13T08:09:36.634Z,10.35
2023-01-13T08:12:23.273Z,10.38
2023-01-13T08:14:54.019Z,10.51
2023-01-13T08:17:22.819Z,10.55
2023-01-13T08:19:51.620Z,10.65
2023-01-13T08:22:20.339Z,10.79
2023-01-13T08:24:50.323Z,10.94
2023-01-13T08:27:20.252Z,11.01
2023-01-13T08:29:48.962Z,10.97
2023-01-13T08:32:17.625Z,11.20
2023-01-13T08:34:46.237Z,11.25
2023-01-13T08:37:15.050Z,11.15
2023-01-13T08:39:43.742Z,11.22
2023-01-13T08:42:14.182Z,11.15
2023-01-13T08:44:42.825Z,11.24
2023-01-13T08:47:11.475Z,11.23
2023-01-13T08:49:40.364Z,11.31
2023-01-13T08:52:09.132Z,11.32
2023-01-13T08:54:39.804Z,11.35
2023-01-13T08:57:08.777Z,11.50
2023-01-13T08:59:39.047Z,11.27
2023-01-13T09:02:15.391Z,11.52
2023-01-13T09:04:44.699Z,11.31
2023-01-13T09:07:13.878Z,11.44
2023-01-13T09:09:42.579Z,11.45
2023-01-13T09:12:31.582Z,11.49
2023-01-13T09:15:02.530Z,11.34
2023-01-13T09:17:31.288Z,11.26
2023-01-13T09:19:59.919Z,11.20
2023-01-13T09:22:28.640Z,10.98
2023-01-13T09:24:57.519Z,10.96
2023-01-13T09:27:26.261Z,10.96
2023-01-13T09:29:54.972Z,10.86
2023-01-13T09:32:24.897Z,11.03
2023-01-13T09:35:01.673Z,11.27
2023-01-13T09:37:34.128Z,11.23
2023-01-13T09:40:03.793Z,11.19
2023-01-13T09:43:05.137Z,11.46
2023-01-13T09:45:41.965Z,11.56
2023-01-13T09:48:21.936Z,11.59
2023-01-13T09:51:04.185Z,11.44
2023-01-13T09:53:41.079Z,11.51
2023-01-13T09:56:12.223Z,11.45
2023-01-13T09:58:41.060Z,11.43
2023-01-13T10:01:26.533Z,11.38
2023-01-13T10:03:56.878Z,11.54
2023-01-13T10:06:35.765Z,11.74
2023-01-13T10:09:04.823Z,12.00
2023-01-13T10:11:58.099Z,12.13
2023-01-13T10:14:36.073Z,12.25
2023-01-13T10:17:20.327Z,12.33
2023-01-13T10:19:59.791Z,12.44
2023-01-13T10:22:53.539Z,12.61
2023-01-13T10:25:34.626Z,12.83
2023-01-13T10:28:11.043Z,12.97
2023-01-13T10:30:42.967Z,13.06
2023-01-13T10:33:15.890Z,12.99
2023-01-13T10:36:00.260Z,13.15
2023-01-13T10:38:37.958Z,13.03
2023-01-13T10:41:19.382Z,13.29
2023-01-13T10:44:02.383Z,13.40
2023-01-13T10:46:34.301Z,13.57
2023-01-13T10:49:05.571Z,13.86
2023-01-13T10:51:45.978Z,14.00
2023-01-13T10:54:22.535Z,14.09
2023-01-13T10:57:16.039Z,14.17
2023-01-13T10:59:45.388Z,14.11
2023-01-13T11:02:27.834Z,13.91
2023-01-13T11:05:25.619Z,13.70
2023-01-13T11:07:58.005Z,13.25
2023-01-13T11:10:31.321Z,12.94
2023-01-13T11:13:08.508Z,12.98
2023-01-13T11:15:48.337Z,12.89
2023-01-13T11:18:27.690Z,12.54
2023-01-13T11:20:59.856Z,12.23
2023-01-13T11:23:38.211Z,11.76
2023-01-13T11:26:17.423Z,11.65
2023-01-13T11:28:56.060Z,11.46
2023-01-13T11:31:33.372Z,11.31
2023-01-13T11:34:15.068Z,11.27
2023-01-13T11:36:51.738Z,11.17
2023-01-13T11:39:31.129Z,11.22
2023-01-13T11:42:24.422Z,11.32
2023-01-13T11:45:08.322Z,11.23
2023-01-13T11:47:37.839Z,11.24
2023-01-13T11:50:18.627Z,11.32
2023-01-13T11:53:12.757Z,11.21
2023-01-13T11:55:59.849Z,11.13
2023-01-13T11:59:03.343Z,10.80
2023-01-13T12:02:06.375Z,9.82
2023-01-13T12:04:50.328Z,9.59
2023-01-13T12:07:23.513Z,9.55
2023-01-13T12:10:11.602Z,9.66
2023-01-13T12:12:57.893Z,9.81
2023-01-13T12:16:15.143Z,9.79
2023-01-13T12:19:24.352Z,10.05
2023-01-13T12:22:12.032Z,10.39
2023-01-13T12:24:50.449Z,10.09
2023-01-13T12:27:36.820Z,10.07
2023-01-13T12:30:24.741Z,10.12
2023-01-13T12:32:58.627Z,9.98
2023-01-13T12:35:42.668Z,10.24
2023-01-13T12:38:24.278Z,10.58
2023-01-13T12:41:07.861Z,10.87
2023-01-13T12:44:05.271Z,10.78
2023-01-13T12:47:00.638Z,10.79
2023-01-13T12:49:32.907Z,10.62
2023-01-13T12:52:14.964Z,10.52
2023-01-13T12:55:10.135Z,10.43
2023-01-13T12:57:40.309Z,10.30
2023-01-13T13:00:18.088Z,10.17
2023-01-13T13:03:29.262Z,10.20
2023-01-13T13:06:07.419Z,10.16
2023-01-13T13:09:05.758Z,9.84
2023-01-13T13:12:02.412Z,9.65
2023-01-13T13:15:06.985Z,9.54
2023-01-13T13:18:01.223Z,9.54
2023-01-13T13:21:06.029Z,9.58
2023-01-13T13:23:48.984Z,9.73
2023-01-13T13:26:30.741Z,9.92
2023-01-13T13:29:44.564Z,10.20
2023-01-13T13:32:54.428Z,10.43
2023-01-13T13:35:46.416Z,10.58
2023-01-13T13:39:03.171Z,10.86
2023-01-13T13:41:53.593Z,11.00
2023-01-13T13:44:45.687Z,11.04
2023-01-13T13:47:14.621Z,10.83
2023-01-13T13:49:48.700Z,10.75
2023-01-13T13:52:25.674Z,10.87
2023-01-13T13:55:04.275Z,10.65
2023-01-13T13:57:39.876Z,10.69
2023-01-13T14:00:26.607Z,10.53
2023-01-13T14:03:01.152Z,10.46
2023-01-13T14:05:32.109Z,10.18
2023-01-13T14:08:03.913Z,10.13
2023-01-13T14:10:37.227Z,10.02
2023-01-13T14:13:16.865Z,10.11
2023-01-13T14:15:47.302Z,9.98
2023-01-13T14:18:20.694Z,9.97
2023-01-13T14:20:56.861Z,9.84
2023-01-13T14:23:30.555Z,9.77
2023-01-13T14:26:09.979Z,9.77
2023-01-13T14:28:41.236Z,9.78
2023-01-13T14:31:12.589Z,9.74
2023-01-13T14:33:47.082Z,9.53
2023-01-13T14:36:20.568Z,9.43
2023-01-13T14:39:11.581Z,9.52
2023-01-13T14:41:50.567Z,9.52
2023-01-13T14:44:27.129Z,9.57
2023-01-13T14:46:58.640Z,9.49
2023-01-13T14:49:36.047Z,9.38
2023-01-13T14:52:16.233Z,9.36
2023-01-13T14:54:52.009Z,9.36
2023-01-13T14:57:28.631Z,9.62
2023-01-13T15:00:04.868Z,9.65
2023-01-13T15:02:46.271Z,9.76
2023-01-13T15:05:47.338Z,9.62
2023-01-13T15:08:40.657Z,9.59
2023-01-13T15:11:25.032Z,9.48
2023-01-13T15:14:02.314Z,9.36
2023-01-13T15:16:33.904Z,9.19
2023-01-13T15:19:04.503Z,9.16
2023-01-13T15:21:33.183Z,9.19
2023-01-13T15:24:01.862Z,9.12
2023-01-13T15:26:34.900Z,8.96
2023-01-13T15:29:07.789Z,8.99
2023-01-13T15:31:36.366Z,8.96
2023-01-13T15:34:05.060Z,8.91
2023-01-13T15:36:36.873Z,8.74
2023-01-13T15:39:05.758Z,8.79
2023-01-13T15:41:48.464Z,8.76
2023-01-13T15:44:36.388Z,8.65
2023-01-13T15:47:09.348Z,8.55
2023-01-13T15:49:42.016Z,8.42
2023-01-13T15:52:21.501Z,8.22
2023-01-13T15:54:50.359Z,8.25
2023-01-13T15:57:24.824Z,8.23
2023-01-13T15:59:57.675Z,8.21
2023-01-13T16:02:26.470Z,8.19
2023-01-13T16:04:55.145Z,8.20
2023-01-13T16:07:26.834Z,8.28
2023-01-13T16:09:55.576Z,8.25
2023-01-13T16:12:24.355Z,8.36
2023-01-13T16:14:54.512Z,8.30
2023-01-13T16:17:29.106Z,8.27
2023-01-13T16:19:57.859Z,8.25
2023-01-13T16:22:26.964Z,8.14
2023-01-13T16:24:56.103Z,8.03
2023-01-13T16:27:26.985Z,7.90
2023-01-13T16:29:57.084Z,7.93
2023-01-13T16:32:25.726Z,7.93
2023-01-13T16:34:54.381Z,7.76
2023-01-13T16:37:26.350Z,7.65
2023-01-13T16:39:56.040Z,7.61
2023-01-13T16:42:24.768Z,7.64
2023-01-13T16:44:53.536Z,7.77
2023-01-13T16:47:24.325Z,7.79
2023-01-13T16:49:53.328Z,7.76
2023-01-13T16:52:22.032Z,7.77
2023-01-13T16:54:50.743Z,7.78
2023-01-13T16:57:19.463Z,7.83
2023-01-13T16:59:48.407Z,7.87
2023-01-13T17:02:20.215Z,7.95
2023-01-13T17:04:50.901Z,7.89
2023-01-13T17:07:23.902Z,7.83
2023-01-13T17:09:52.591Z,7.98
2023-01-13T17:12:21.190Z,8.07
2023-01-13T17:14:49.903Z,8.09
2023-01-13T17:17:24.495Z,8.08
2023-01-13T17:19:55.826Z,8.16
2023-01-13T17:22:24.501Z,8.20
2023-01-13T17:24:53.119Z,8.13
2023-01-13T17:27:23.005Z,8.25
2023-01-13T17:29:52.016Z,8.25
2023-01-13T17:32:22.997Z,8.19
2023-01-13T17:34:53.786Z,8.20
2023-01-13T17:37:23.896Z,8.32
2023-01-13T17:39:53.614Z,8.36
2023-01-13T17:42:24.146Z,8.40
2023-01-13T17:44:53.204Z,8.36
2023-01-13T17:47:22.241Z,8.40
2023-01-13T17:49:51.016Z,8.38
2023-01-13T17:52:20.270Z,8.36
2023-01-13T17:54:50.291Z,8.37
2023-01-13T17:57:22.858Z,8.35
2023-01-13T17:59:51.572Z,8.17
2023-01-13T18:02:20.452Z,8.22
2023-01-13T18:04:49.143Z,8.24
2023-01-13T18:07:17.865Z,8.12
2023-01-13T18:09:46.537Z,8.15
2023-01-13T18:12:16.773Z,8.17
2023-01-13T18:14:45.587Z,8.10
2023-01-13T18:17:14.183Z,8.07
2023-01-13T18:20:00.733Z,8.07
2023-01-13T18:22:46.845Z,7.67
2023-01-13T18:25:33.199Z,7.47
2023-01-13T18:28:03.215Z,7.17
2023-01-13T18:30:31.909Z,7.00
2023-01-13T18:33:00.553Z,6.86
2023-01-13T18:35:30.104Z,6.76
2023-01-13T18:37:58.704Z,6.71
2023-01-13T18:40:27.294Z,6.54
2023-01-13T18:42:55.323Z,6.41
2023-01-13T18:45:28.048Z,6.27
2023-01-13T18:47:59.577Z,6.17
2023-01-13T18:50:28.725Z,6.07
2023-01-13T18:52:57.933Z,5.89
2023-01-13T18:55:28.995Z,5.77
2023-01-13T18:57:59.079Z,5.71
2023-01-13T19:00:31.071Z,5.70
2023-01-13T19:05:36.386Z,5.60
2023-01-13T19:08:05.794Z,5.54
2023-01-13T19:10:34.685Z,5.53
2023-01-13T19:13:03.404Z,5.46
2023-01-13T19:15:33.587Z,5.39
2023-01-13T19:18:02.315Z,5.30
2023-01-13T19:20:31.228Z,5.26
2023-01-13T19:22:59.842Z,5.19
2023-01-13T19:25:28.442Z,5.05
2023-01-13T19:27:57.002Z,4.91
2023-01-13T19:30:25.624Z,4.90
2023-01-13T19:32:55.571Z,4.85
2023-01-13T19:35:24.167Z,4.79
2023-01-13T19:37:54.036Z,4.75
2023-01-13T19:40:22.782Z,4.87
2023-01-13T19:43:08.844Z,4.86
2023-01-13T19:45:37.549Z,4.96
2023-01-13T19:48:08.609Z,4.89
2023-01-13T19:50:39.605Z,4.95
2023-01-13T19:53:12.834Z,4.97
2023-01-13T19:55:47.697Z,4.86
2023-01-13T19:58:18.748Z,4.86
2023-01-13T20:00:48.518Z,4.79
2023-01-13T20:03:23.641Z,4.91
2023-01-13T20:05:53.325Z,4.91
2023-01-13T20:08:23.694Z,4.97
2023-01-13T20:11:12.340Z,5.15
2023-01-13T20:13:40.943Z,5.23
2023-01-13T20:16:10.850Z,5.15
2023-01-13T20:18:40.857Z,5.11
2023-01-13T20:21:10.877Z,5.05
2023-01-13T20:23:39.715Z,5.01
2023-01-13T20:26:09.221Z,4.97
2023-01-13T20:28:39.481Z,5.04
2023-01-13T20:31:09.625Z,5.02
2023-01-13T20:33:40.932Z,5.08
2023-01-13T20:36:25.409Z,5.15
2023-01-13T20:38:59.041Z,5.32
2023-01-13T20:41:46.068Z,5.42
2023-01-13T20:44:16.018Z,5.59
2023-01-13T20:46:46.148Z,5.76
2023-01-13T20:49:17.132Z,5.83
2023-01-13T20:51:45.945Z,5.95
2023-01-13T20:54:15.248Z,6.04
2023-01-13T20:56:44.663Z,6.13
2023-01-13T20:59:13.912Z,6.22
2023-01-13T21:01:42.703Z,6.30
2023-01-13T21:04:11.912Z,6.43
2023-01-13T21:06:42.560Z,6.50
2023-01-13T21:09:11.301Z,6.49
2023-01-13T21:11:57.434Z,6.48
2023-01-13T21:14:46.305Z,6.55
2023-01-13T21:17:40.305Z,6.67
2023-01-13T21:20:11.196Z,6.59
2023-01-13T21:22:45.924Z,6.69
2023-01-13T21:25:16.543Z,6.68
2023-01-13T21:27:45.508Z,6.72
2023-01-13T21:30:17.269Z,6.79
2023-01-13T21:32:46.788Z,6.70
2023-01-13T21:35:16.076Z,6.74
2023-01-13T21:37:46.209Z,6.81
2023-01-13T21:40:15.753Z,6.72
2023-01-13T21:43:02.182Z,6.75
2023-01-13T21:45:48.321Z,6.67
2023-01-13T21:48:17.031Z,6.67
2023-01-13T21:50:45.683Z,6.68
2023-01-13T21:53:15.823Z,6.47
2023-01-13T21:55:44.410Z,6.36
2023-01-13T21:58:15.084Z,6.33
2023-01-13T22:00:46.380Z,6.23
2023-01-13T22:03:19.973Z,6.24
2023-01-13T22:05:55.872Z,6.19
2023-01-13T22:08:25.852Z,6.31
2023-01-13T22:10:58.534Z,6.41
2023-01-13T22:13:47.494Z,6.45
2023-01-13T22:16:17.057Z,6.39
2023-01-13T22:18:45.687Z,6.20
2023-01-13T22:21:14.383Z,6.17
2023-01-13T22:23:44.326Z,6.21
2023-01-13T22:26:13.726Z,6.26
2023-01-13T22:28:43.178Z,6.29
2023-01-13T22:31:14.342Z,6.37
2023-01-13T22:33:47.174Z,6.36
2023-01-13T22:36:17.396Z,6.37
2023-01-13T22:38:47.344Z,6.48
2023-01-13T22:41:16.228Z,6.42
2023-01-13T22:43:44.758Z,6.50
2023-01-13T22:46:14.984Z,6.47
2023-01-13T22:48:43.486Z,6.40
2023-01-13T22:51:14.912Z,6.41
2023-01-13T22:53:44.359Z,6.35
2023-01-13T22:56:19.997Z,6.25
2023-01-13T22:58:49.014Z,6.21
2023-01-13T23:01:19.288Z,6.11
2023-01-13T23:03:49.150Z,6.08
2023-01-13T23:06:20.708Z,6.11
2023-01-13T23:08:49.977Z,6.10
2023-01-13T23:11:24.599Z,6.12
2023-01-13T23:13:59.699Z,5.97
2023-01-13T23:16:30.600Z,5.95
2023-01-13T23:18:59.525Z,6.01
2023-01-13T23:21:30.907Z,6.07
2023-01-13T23:24:00.834Z,6.14
2023-01-13T23:26:32.574Z,6.23
2023-01-13T23:29:02.763Z,6.26
2023-01-13T23:31:31.560Z,6.29
2023-01-13T23:34:00.844Z,6.42
2023-01-13T23:36:30.951Z,6.48
2023-01-13T23:39:00.762Z,6.53
2023-01-13T23:41:30.677Z,6.59
2023-01-13T23:44:01.591Z,6.66
2023-01-13T23:46:33.888Z,6.73
2023-01-13T23:49:04.322Z,6.64
2023-01-13T23:51:33.542Z,6.65
2023-01-13T23:54:02.465Z,6.63
2023-01-13T23:56:34.037Z,6.53
2023-01-13T23:59:02.806Z,6.60
